Newton, KS (67114)

1:03 AM CDT on April 26, 2017 (GMT -0500)
Feva Tordado | | Change Station

Elev 1457 ft 38.06 °N, 97.36 °W | Updated 35 seconds ago

Overcast
Overcast
45.1 °F
Feels Like 45 °F
N
2.7
Wind Variable Wind from South
Gusts 5.4 mph

Today
High -- | Low -- °F
--% Chance of Precip.
Yesterday
High -- | Low -- °F
Precip. -- in
Pressure 29.55 in
Visibility 10.0 miles
Clouds Overcast 1000 ft
Windchill 45 °F
Dew Point 41 °F
Humidity 86%
Rainfall 0.00 in
Snow Depth Not available.
6:38 AM 8:16 PM
Waning Crescent, 0% visible
METAR KEWK 260556Z AUTO 35020G27KT 10SM OVC010 06/05 A2957 RMK AO2 PK WND 36028/0523 SLP006 60001 T00610050 10122 20061 53003
Pressure 29.55 in
Visibility 10.0 miles
Clouds Overcast 1000 ft
Windchill 45 °F
Dew Point 41 °F
Humidity 86%
Rainfall 0.00 in
Snow Depth Not available.
6:38 AM 8:16 PM
Waning Crescent, 0% visible
METAR KEWK 260556Z AUTO 35020G27KT 10SM OVC010 06/05 A2957 RMK AO2 PK WND 36028/0523 SLP006 60001 T00610050 10122 20061 53003

Get Severe Weather Alerts

Thanks for signing up!

Be on the lookout for a verification email in your inbox.

You'll start receiving the daily forecast at 8 AM.

×

10-Day Weather Forecast

Almanac

Astronomy

Apr. 26, 2017 Rise Set
Actual Time
Civil Twilight
Nautical Twilight
Astronomical Twilight
Moon
Length of Visible Light
Length of Day
Tomorrow will be .
, % of the Moon is Illuminated

Today's Extremes

State Highs State Lows

Community

WunderPhotos

WunderBlog® & News

Nearby

Air Quality

  Air Quality AQ Index Pollutant
Not available.

Snow Depth

Station Depth Elevation

Earthquake Activity

City Distance Mag. Time & Date
Minimum magnitude displayed is 2.5.

Coastal Water Temperatures

Place Temperature

Stations

Nearby Weather Stations

Station Location Temp. Windchill Dew Point Humidity Wind Precip. Elev Updated Type
                   

Watches & Warnings

There are currently no watches in effect.